METAR Data
IDs: Format: Raw Decoded Include TAF

Data at: 2135 UTC 24 Mar 2019

KHWD 242054Z 23004KT 10SM CLR 23/07 A3018 RMK AO2 SLP229 T02280072 58019 $
No TAF found for KHWD

KRDD 242053Z 00000KT 10SM CLR 16/03 A3021 RMK AO2 SLP227 T01560033 58013 $

KRDD 241728Z 2418/2518 VRB03KT P6SM FEW050 BKN250
  FM250600 VRB04KT P6SM OVC100
  FM251200 02005KT P6SM -RA BKN050 OVC100
  FM251400 05008KT 4SM RA BR BKN025 OVC050


KRTS 242115Z AUTO VRB04KT 10SM CLR 09/M07 A3018 RMK AO2
No TAF found for KRTS